Time;durP1;ratioP1;P1;durP2;ratioP2;P2;SDS_P1;SDS_P2;PMS_P1;PMS_P2;Temp;Humidity;BMP_temperature;BMP_pressure;BME280_temperature;BME280_humidity;BME280_pressure;Samples;Min_cycle;Max_cycle;Signal;HPM_P1;HPM_P2
2022/01/01 00:01:05;;;;;;;48.43;28.10;;;10.80;99.90;;;;;;5036424;28;20049;-70
2022/01/01 00:03:32;;;;;;;41.05;26.17;;;10.80;99.90;;;;;;5037108;28;20099;-70
2022/01/01 00:05:57;;;;;;;41.40;26.20;;;10.80;99.90;;;;;;5036379;28;20026;-69
2022/01/01 00:08:23;;;;;;;43.50;27.77;;;10.80;99.90;;;;;;5037575;28;20025;-69
2022/01/01 00:10:48;;;;;;;44.93;26.83;;;10.90;99.90;;;;;;5035680;28;20056;-69
2022/01/01 00:13:14;;;;;;;39.10;25.10;;;10.90;99.90;;;;;;5035715;28;20021;-69
2022/01/01 00:15:40;;;;;;;40.67;24.47;;;10.80;99.90;;;;;;5035649;28;20405;-69
2022/01/01 00:18:05;;;;;;;36.93;23.80;;;10.90;99.90;;;;;;5035296;28;20256;-69
2022/01/01 00:20:31;;;;;;;37.87;21.33;;;10.90;99.90;;;;;;5035397;28;20029;-69
2022/01/01 00:22:56;;;;;;;36.60;21.73;;;10.90;99.90;;;;;;5035462;28;20022;-69
2022/01/01 00:25:22;;;;;;;32.03;20.27;;;10.90;99.90;;;;;;5037262;28;20382;-68
2022/01/01 00:27:48;;;;;;;33.37;19.77;;;10.80;99.90;;;;;;5035814;28;20033;-68
2022/01/01 00:30:13;;;;;;;31.97;20.17;;;10.80;99.90;;;;;;5037316;28;20029;-68
2022/01/01 00:32:39;;;;;;;30.47;19.00;;;10.70;99.90;;;;;;5035369;28;20032;-68
2022/01/01 00:35:06;;;;;;;30.92;18.20;;;10.60;99.90;;;;;;5033335;28;20021;-68
2022/01/01 00:37:31;;;;;;;33.95;19.75;;;10.60;99.90;;;;;;5034667;28;20029;-69
2022/01/01 00:39:57;;;;;;;28.73;18.87;;;10.60;99.90;;;;;;5034729;28;20040;-68
2022/01/01 00:42:24;;;;;;;30.90;19.60;;;10.60;99.90;;;;;;5049948;28;20264;-68
2022/01/01 00:44:49;;;;;;;27.45;18.00;;;10.70;99.90;;;;;;5034596;28;20260;-69
2022/01/01 00:47:15;;;;;;;25.33;17.02;;;10.70;99.90;;;;;;5034614;28;20435;-68
2022/01/01 00:49:41;;;;;;;26.85;17.17;;;10.80;99.90;;;;;;5049723;28;20147;-69
2022/01/01 00:52:07;;;;;;;31.80;19.08;;;10.80;99.90;;;;;;5049665;28;20375;-68
2022/01/01 00:54:32;;;;;;;34.35;20.52;;;10.70;99.90;;;;;;5032857;28;20053;-69
2022/01/01 00:56:58;;;;;;;30.03;18.83;;;10.70;99.90;;;;;;5033009;28;20025;-68
2022/01/01 00:59:24;;;;;;;33.73;20.13;;;10.60;99.90;;;;;;5049441;28;20025;-68
2022/01/01 01:01:50;;;;;;;36.60;22.08;;;10.50;99.90;;;;;;5049618;28;20033;-68
2022/01/01 01:04:16;;;;;;;33.45;19.23;;;10.50;99.90;;;;;;5033258;28;20171;-68
2022/01/01 01:06:41;;;;;;;32.75;19.23;;;10.40;99.90;;;;;;5050438;28;20025;-68
2022/01/01 01:09:07;;;;;;;33.53;18.90;;;10.50;99.90;;;;;;5050896;28;20029;-68
2022/01/01 01:11:41;;;;;;;30.63;18.13;;;10.30;99.90;;;;;;5034014;28;20100;-69
2022/01/01 01:14:09;;;;;;;31.85;19.15;;;10.30;99.90;;;;;;5033057;28;20268;-68
2022/01/01 01:16:35;;;;;;;33.13;18.92;;;10.40;99.90;;;;;;5032505;28;20436;-69
2022/01/01 01:19:01;;;;;;;32.53;17.50;;;10.40;99.90;;;;;;5033915;28;20032;-69
2022/01/01 01:21:28;;;;;;;29.07;16.93;;;10.30;99.90;;;;;;5036491;28;20059;-69
2022/01/01 01:23:54;;;;;;;28.75;16.02;;;10.30;99.90;;;;;;5034388;28;20022;-69
2022/01/01 01:26:20;;;;;;;29.48;16.10;;;10.30;99.90;;;;;;5033868;28;20568;-69
2022/01/01 01:28:49;;;;;;;30.90;16.20;;;10.30;99.90;;;;;;5034001;28;20108;-69
2022/01/01 01:31:16;;;;;;;27.67;15.55;;;10.30;99.90;;;;;;5033684;28;20536;-69
2022/01/01 01:33:43;;;;;;;25.63;15.48;;;10.20;99.90;;;;;;5033719;28;20033;-69
2022/01/01 01:36:09;;;;;;;26.05;13.82;;;10.30;99.90;;;;;;5033582;28;20030;-69
2022/01/01 01:38:36;;;;;;;25.80;14.13;;;10.30;99.90;;;;;;5048980;28;20028;-69
2022/01/01 01:41:08;;;;;;;24.67;13.25;;;10.30;99.90;;;;;;5048930;28;20036;-69
2022/01/01 01:43:34;;;;;;;26.48;13.85;;;10.20;99.90;;;;;;5033994;28;20151;-69
2022/01/01 01:46:04;;;;;;;22.73;14.05;;;10.10;99.90;;;;;;5033971;28;20087;-69
2022/01/01 01:48:32;;;;;;;23.48;12.77;;;10.20;99.90;;;;;;5048791;28;20057;-69
2022/01/01 01:50:58;;;;;;;21.00;12.55;;;10.10;99.90;;;;;;5048771;28;20026;-69
2022/01/01 01:53:24;;;;;;;19.10;11.32;;;10.10;99.90;;;;;;5048697;28;20052;-69
2022/01/01 01:55:50;;;;;;;22.60;12.48;;;10.10;99.90;;;;;;5033310;28;20036;-69
2022/01/01 01:58:17;;;;;;;25.02;13.57;;;10.00;99.90;;;;;;5033586;28;20022;-69
2022/01/01 02:03:11;;;;;;;26.33;13.77;;;10.10;99.90;;;;;;5033788;28;20470;-69
2022/01/01 02:05:37;;;;;;;20.27;12.27;;;10.10;99.90;;;;;;5031948;28;20021;-69
2022/01/01 02:08:03;;;;;;;;;;;10.00;99.90;;;;;;5032284;28;20329;-69
2022/01/01 02:10:32;;;;;;;23.75;11.82;;;10.10;99.90;;;;;;5033158;28;19992;-68
2022/01/01 02:12:58;;;;;;;23.02;13.18;;;10.10;99.90;;;;;;5048312;28;20146;-68
2022/01/01 02:15:47;;;;;;;17.97;10.40;;;10.10;99.90;;;;;;5032902;28;20033;-68
2022/01/01 02:18:12;;;;;;;21.17;10.93;;;10.10;99.90;;;;;;5033289;28;20144;-68
2022/01/01 02:20:38;;;;;;;20.47;11.40;;;10.10;99.90;;;;;;5032884;28;20108;-68
2022/01/01 02:23:05;;;;;;;23.13;13.40;;;10.00;99.90;;;;;;5048531;28;20280;-68
2022/01/01 02:25:31;;;;;;;19.17;10.73;;;10.00;99.90;;;;;;5047970;28;20034;-68
2022/01/01 02:27:56;;;;;;;20.20;11.63;;;10.10;99.90;;;;;;5039414;28;20049;-68
2022/01/01 02:30:23;;;;;;;20.73;12.50;;;10.00;99.90;;;;;;5041992;28;20397;-69
2022/01/01 02:32:48;;;;;;;21.38;12.27;;;10.00;99.90;;;;;;5036860;28;20268;-69
2022/01/01 02:35:16;;;;;;;20.20;12.30;;;10.10;99.90;;;;;;5031354;28;20037;-68
2022/01/01 02:37:42;;;;;;;24.00;11.40;;;10.10;99.90;;;;;;5031455;28;20026;-68
2022/01/01 02:40:09;;;;;;;20.15;11.32;;;10.30;99.90;;;;;;5032946;28;20490;-69
2022/01/01 02:42:37;;;;;;;21.90;12.38;;;10.20;99.90;;;;;;5032809;28;20036;-69
2022/01/01 02:45:07;;;;;;;23.50;10.95;;;10.30;99.90;;;;;;5032851;28;20100;-70
2022/01/01 02:47:33;;;;;;;19.85;10.90;;;10.30;99.90;;;;;;5033522;28;20024;-70
2022/01/01 02:49:59;;;;;;;19.52;11.60;;;10.20;99.90;;;;;;5048787;28;20128;-69
2022/01/01 02:52:25;;;;;;;26.33;12.93;;;10.30;99.90;;;;;;5034712;28;20141;-70
2022/01/01 02:54:50;;;;;;;21.48;12.60;;;10.20;99.90;;;;;;5053539;28;20218;-70
2022/01/01 02:57:17;;;;;;;19.40;11.93;;;10.10;99.90;;;;;;5044833;22;20045;-65
2022/01/01 02:59:42;;;;;;;21.45;12.27;;;10.10;99.90;;;;;;5036786;28;20029;-65
2022/01/01 03:02:08;;;;;;;25.75;14.43;;;10.10;99.90;;;;;;5037494;28;20029;-65
2022/01/01 03:04:34;;;;;;;22.70;12.30;;;10.10;99.90;;;;;;5019329;28;20029;-65
2022/01/01 03:07:00;;;;;;;23.17;12.97;;;10.10;99.90;;;;;;5019320;28;20030;-65
2022/01/01 03:09:34;;;;;;;22.60;12.02;;;10.20;99.90;;;;;;5037171;28;20064;-65
2022/01/01 03:12:09;;;;;;;24.08;14.40;;;10.10;99.90;;;;;;5019202;28;20500;-65
2022/01/01 03:14:36;;;;;;;21.63;11.98;;;10.10;99.90;;;;;;5019065;28;20385;-65
2022/01/01 03:17:04;;;;;;;24.55;13.18;;;10.00;99.90;;;;;;5037100;28;20049;-65
2022/01/01 03:19:30;;;;;;;24.00;13.18;;;10.00;99.90;;;;;;5036815;28;20029;-66
2022/01/01 03:21:55;;;;;;;25.73;13.87;;;10.00;99.90;;;;;;5037616;28;20374;-67
2022/01/01 03:24:21;;;;;;;22.97;12.70;;;10.00;99.90;;;;;;5040523;28;20075;-66
2022/01/01 03:26:46;;;;;;;24.50;13.82;;;10.00;99.90;;;;;;5038588;28;20461;-65
2022/01/01 03:29:12;;;;;;;22.60;12.47;;;10.00;99.90;;;;;;5018814;28;20034;-65
2022/01/01 03:31:38;;;;;;;23.87;14.70;;;10.10;99.90;;;;;;5036453;28;20037;-64
2022/01/01 03:34:04;;;;;;;29.23;17.07;;;10.10;99.90;;;;;;5036223;28;20100;-65
2022/01/01 03:36:30;;;;;;;21.90;12.88;;;10.10;99.90;;;;;;5036166;28;20390;-65
2022/01/01 03:38:56;;;;;;;23.77;13.88;;;10.00;99.90;;;;;;5036537;28;20025;-65
2022/01/01 03:41:22;;;;;;;;;;;10.20;99.90;;;;;;5036979;28;20029;-65
2022/01/01 03:43:49;;;;;;;25.85;13.85;;;10.10;99.90;;;;;;5040433;28;19931;-65
2022/01/01 03:46:15;;;;;;;27.02;13.65;;;10.10;99.90;;;;;;5046451;28;20093;-65
2022/01/01 03:48:41;;;;;;;24.87;13.33;;;10.10;99.90;;;;;;5043547;28;20061;-65
2022/01/01 03:51:07;;;;;;;26.63;14.07;;;10.10;99.90;;;;;;5038618;28;20026;-65
2022/01/01 03:53:33;;;;;;;23.63;12.93;;;10.10;99.90;;;;;;5039351;28;20300;-65
2022/01/01 03:55:59;;;;;;;22.92;13.80;;;10.20;99.90;;;;;;5021134;28;20029;-65
2022/01/01 03:58:25;;;;;;;22.75;13.20;;;10.10;99.90;;;;;;5039594;28;20389;-65
2022/01/01 04:00:51;;;;;;;23.95;13.80;;;10.00;99.90;;;;;;5040092;28;20021;-65
2022/01/01 04:03:17;;;;;;;25.17;13.85;;;10.00;99.90;;;;;;5040449;28;20072;-66
2022/01/01 04:05:43;;;;;;;22.63;13.55;;;9.90;99.90;;;;;;5040950;28;20108;-66
2022/01/01 04:08:09;;;;;;;23.92;14.20;;;9.90;99.90;;;;;;5040477;28;20068;-65
2022/01/01 04:10:35;;;;;;;;;;;9.80;99.90;;;;;;5039966;28;20025;-65
2022/01/01 04:13:02;;;;;;;25.27;13.52;;;9.80;99.90;;;;;;5040403;28;19913;-66
2022/01/01 04:15:29;;;;;;;23.23;13.25;;;9.70;99.90;;;;;;5040738;28;20330;-65
2022/01/01 04:18:03;;;;;;;24.13;13.38;;;9.70;99.90;;;;;;5040268;28;20021;-65
2022/01/01 04:20:29;;;;;;;22.05;13.18;;;9.60;99.90;;;;;;5022684;28;20022;-66
2022/01/01 04:22:57;;;;;;;25.05;14.20;;;9.60;99.90;;;;;;5040152;28;20097;-65
2022/01/01 04:25:23;;;;;;;22.20;12.80;;;9.50;99.90;;;;;;5022801;28;20030;-65
2022/01/01 04:27:50;;;;;;;24.95;13.13;;;9.60;99.90;;;;;;5040548;28;20036;-65
2022/01/01 04:30:16;;;;;;;24.23;13.98;;;9.60;99.90;;;;;;5040193;28;20029;-65
2022/01/01 04:32:42;;;;;;;26.27;14.77;;;9.50;99.90;;;;;;5040806;28;20093;-65
2022/01/01 04:35:08;;;;;;;23.75;13.80;;;9.40;99.90;;;;;;5022557;28;20121;-66
2022/01/01 04:37:34;;;;;;;;;;;9.40;99.90;;;;;;5040987;28;20026;-66
2022/01/01 04:40:00;;;;;;;25.67;14.27;;;9.30;99.90;;;;;;5040555;28;19908;-65
2022/01/01 04:42:26;;;;;;;24.30;14.57;;;9.30;99.90;;;;;;5022357;28;20097;-65
2022/01/01 04:44:53;;;;;;;27.60;14.73;;;9.20;99.90;;;;;;5038556;28;20260;-65
2022/01/01 04:47:18;;;;;;;;;;;9.20;99.90;;;;;;5036697;28;20029;-65
2022/01/01 04:49:44;;;;;;;27.27;15.40;;;9.10;99.90;;;;;;5037152;28;19967;-65
2022/01/01 04:52:10;;;;;;;28.95;15.93;;;9.10;99.90;;;;;;5036629;28;20064;-65
2022/01/01 04:54:40;;;;;;;27.80;14.83;;;9.00;99.90;;;;;;5018530;28;20477;-66
2022/01/01 04:57:07;;;;;;;35.63;19.25;;;9.00;99.90;;;;;;5035524;28;20272;-66
2022/01/01 04:59:34;;;;;;;32.38;17.65;;;9.10;99.90;;;;;;5018133;28;20026;-66
2022/01/01 05:01:59;;;;;;;31.92;16.40;;;9.10;99.90;;;;;;5035373;28;20037;-65
2022/01/01 05:04:25;;;;;;;32.30;16.87;;;9.00;99.90;;;;;;5034551;28;20041;-65
2022/01/01 05:06:51;;;;;;;29.37;16.43;;;9.00;99.90;;;;;;5016873;28;20025;-65
2022/01/01 05:09:18;;;;;;;30.77;16.52;;;8.90;99.90;;;;;;5034690;28;20021;-65
2022/01/01 05:11:44;;;;;;;27.50;16.33;;;8.90;99.90;;;;;;5016827;28;20033;-65
2022/01/01 05:14:10;;;;;;;28.73;16.13;;;8.90;99.90;;;;;;5034694;28;20028;-66
2022/01/01 05:16:35;;;;;;;30.13;15.88;;;8.90;99.90;;;;;;5017162;28;20029;-66
2022/01/01 05:19:01;;;;;;;25.23;14.67;;;8.90;99.90;;;;;;5034687;28;20442;-65
2022/01/01 05:21:31;;;;;;;29.95;14.65;;;8.90;99.90;;;;;;5034588;28;20497;-65
2022/01/01 05:23:56;;;;;;;26.00;14.68;;;9.00;99.90;;;;;;5034436;28;20029;-65
2022/01/01 05:26:22;;;;;;;30.00;14.47;;;9.00;99.90;;;;;;5034824;28;20079;-65
2022/01/01 05:28:49;;;;;;;22.77;12.70;;;9.10;99.90;;;;;;5034441;28;20028;-65
2022/01/01 05:31:16;;;;;;;23.73;13.90;;;9.10;99.90;;;;;;5018083;28;20017;-65
2022/01/01 05:33:41;;;;;;;24.58;13.60;;;9.20;99.90;;;;;;5016694;28;20021;-65
2022/01/01 05:36:07;;;;;;;24.43;13.60;;;9.20;99.90;;;;;;5016708;28;20029;-66
2022/01/01 05:38:33;;;;;;;26.57;13.43;;;9.20;99.90;;;;;;5035049;28;20486;-66
2022/01/01 05:40:58;;;;;;;29.03;14.23;;;9.30;99.90;;;;;;5017174;28;20025;-66
2022/01/01 05:43:24;;;;;;;24.23;13.43;;;9.30;99.90;;;;;;5036075;28;20096;-66
2022/01/01 05:45:50;;;;;;;25.37;13.43;;;9.30;99.90;;;;;;5034070;28;20108;-65
2022/01/01 05:48:15;;;;;;;23.70;13.05;;;9.50;99.90;;;;;;5033798;28;20057;-66
2022/01/01 05:50:41;;;;;;;22.47;13.07;;;9.70;99.90;;;;;;5015841;28;20040;-65
2022/01/01 05:53:07;;;;;;;24.43;12.67;;;9.90;99.90;;;;;;5033755;28;20064;-66
2022/01/01 05:55:33;;;;;;;21.90;13.20;;;9.90;99.90;;;;;;5033600;28;20108;-65
2022/01/01 05:57:58;;;;;;;21.50;12.73;;;10.00;99.90;;;;;;5033372;28;20129;-65
2022/01/01 06:00:24;;;;;;;24.43;14.37;;;9.90;99.90;;;;;;5034137;28;20041;-66
2022/01/01 06:02:50;;;;;;;24.97;13.27;;;9.80;99.90;;;;;;5033411;28;20029;-66
2022/01/01 06:05:15;;;;;;;23.70;13.53;;;9.80;99.90;;;;;;5033452;28;20304;-66
2022/01/01 06:07:41;;;;;;;24.13;12.87;;;9.70;99.90;;;;;;5033369;28;20057;-66
2022/01/01 06:10:07;;;;;;;27.33;13.00;;;9.70;99.90;;;;;;5033458;28;20057;-66
2022/01/01 06:12:32;;;;;;;24.65;12.07;;;9.70;99.90;;;;;;5015889;28;20508;-66
2022/01/01 06:14:58;;;;;;;27.27;14.70;;;9.70;99.90;;;;;;5033367;28;20026;-66
2022/01/01 06:17:23;;;;;;;22.57;12.47;;;9.70;99.90;;;;;;5033382;28;20025;-66
2022/01/01 06:19:49;;;;;;;24.80;12.57;;;9.70;99.90;;;;;;5017490;28;20493;-66
2022/01/01 06:22:15;;;;;;;31.40;16.10;;;9.60;99.90;;;;;;5016969;28;20061;-66
2022/01/01 06:24:40;;;;;;;82.53;39.33;;;9.70;99.90;;;;;;5033633;28;20493;-66
2022/01/01 06:27:06;;;;;;;42.10;22.27;;;9.60;99.90;;;;;;5034775;28;20190;-65
2022/01/01 06:29:32;;;;;;;28.43;15.23;;;9.50;99.90;;;;;;5034744;28;20389;-65
2022/01/01 06:31:57;;;;;;;29.73;15.50;;;9.50;99.90;;;;;;5034478;28;20029;-65
2022/01/01 06:34:23;;;;;;;32.05;17.73;;;9.50;99.90;;;;;;5040005;28;20025;-66
2022/01/01 06:36:51;;;;;;;50.63;30.77;;;9.40;99.90;;;;;;5040903;28;20091;-65
2022/01/01 06:39:19;;;;;;;21.98;12.68;;;9.40;99.90;;;;;;5040727;28;20060;-64
2022/01/01 06:41:45;;;;;;;22.42;13.30;;;9.30;99.90;;;;;;5040854;28;20053;-66
2022/01/01 06:44:11;;;;;;;24.93;13.73;;;9.20;99.90;;;;;;5040585;28;20029;-64
2022/01/01 06:46:36;;;;;;;22.97;12.30;;;9.40;99.90;;;;;;5040351;28;20029;-64
2022/01/01 06:49:02;;;;;;;20.23;13.17;;;9.30;99.90;;;;;;5040403;28;20037;-64
2022/01/01 06:51:28;;;;;;;23.05;12.27;;;9.20;99.90;;;;;;5040148;28;20096;-65
2022/01/01 06:53:53;;;;;;;24.37;13.13;;;9.20;99.90;;;;;;5022017;28;20497;-65
2022/01/01 06:56:19;;;;;;;21.87;11.93;;;9.10;99.90;;;;;;5039815;28;20041;-65
2022/01/01 06:58:45;;;;;;;21.13;12.83;;;9.10;99.90;;;;;;5040418;28;20264;-66
2022/01/01 07:01:11;;;;;;;21.80;13.40;;;9.10;99.90;;;;;;5022196;28;20061;-66
2022/01/01 07:03:36;;;;;;;20.67;11.50;;;9.00;99.90;;;;;;5040059;28;20509;-66
2022/01/01 07:06:03;;;;;;;21.97;12.47;;;9.00;99.90;;;;;;5040370;28;20036;-66
2022/01/01 07:08:29;;;;;;;20.48;12.18;;;9.00;99.90;;;;;;5039967;28;20516;-66
2022/01/01 07:10:55;;;;;;;19.95;12.05;;;9.00;99.90;;;;;;5039967;28;20545;-66
2022/01/01 07:13:21;;;;;;;20.52;10.88;;;9.10;99.90;;;;;;5021992;28;20033;-65
2022/01/01 07:15:46;;;;;;;21.33;11.68;;;9.10;99.90;;;;;;5022086;28;20075;-65
2022/01/01 07:18:12;;;;;;;21.08;12.05;;;9.00;99.90;;;;;;5040038;28;20406;-66
2022/01/01 07:20:38;;;;;;;18.07;11.10;;;8.90;99.90;;;;;;5039850;28;20444;-65
2022/01/01 07:23:03;;;;;;;20.35;11.13;;;8.90;99.90;;;;;;5039459;28;20363;-66
2022/01/01 07:25:29;;;;;;;20.43;11.60;;;8.80;99.90;;;;;;5021776;28;20045;-65
2022/01/01 07:27:55;;;;;;;22.23;12.40;;;8.80;99.90;;;;;;5039726;28;20029;-66
2022/01/01 07:30:21;;;;;;;20.15;11.68;;;8.80;99.90;;;;;;5022069;28;20033;-66
2022/01/01 07:32:48;;;;;;;22.17;12.23;;;8.70;99.90;;;;;;5039310;28;20083;-66
2022/01/01 07:35:16;;;;;;;18.75;11.25;;;8.70;99.90;;;;;;5039216;28;20257;-66
2022/01/01 07:37:41;;;;;;;21.08;11.90;;;8.70;99.90;;;;;;5039798;28;20092;-65
2022/01/01 07:40:09;;;;;;;21.37;11.57;;;8.70;99.90;;;;;;5044533;28;20482;-65
2022/01/01 07:42:35;;;;;;;20.48;11.50;;;8.70;99.90;;;;;;5042619;28;20017;-65
2022/01/01 07:45:01;;;;;;;21.88;12.50;;;8.70;99.90;;;;;;5020325;28;20032;-65
2022/01/01 07:47:27;;;;;;;19.60;11.13;;;8.70;99.90;;;;;;5038188;28;20532;-66
2022/01/01 07:49:53;;;;;;;22.52;13.02;;;8.70;99.90;;;;;;5018983;28;20079;-66
2022/01/01 07:52:18;;;;;;;19.77;11.40;;;8.70;99.90;;;;;;5036408;28;20025;-65
2022/01/01 07:54:44;;;;;;;18.93;10.87;;;8.80;99.90;;;;;;5018252;28;20018;-66
2022/01/01 07:57:10;;;;;;;19.47;11.13;;;8.80;99.90;;;;;;5035688;28;20040;-66
2022/01/01 07:59:35;;;;;;;18.47;10.50;;;8.90;99.90;;;;;;5035919;28;20029;-66
2022/01/01 08:02:01;;;;;;;19.47;11.20;;;8.90;99.90;;;;;;5035926;28;20033;-66
2022/01/01 08:04:27;;;;;;;17.70;10.18;;;8.90;99.90;;;;;;5035727;28;20052;-66
2022/01/01 08:06:52;;;;;;;16.37;9.93;;;9.00;99.90;;;;;;5035958;28;20025;-66
2022/01/01 08:09:18;;;;;;;19.80;10.77;;;9.00;99.90;;;;;;5017989;28;20026;-66
2022/01/01 08:11:44;;;;;;;17.07;10.30;;;9.00;99.90;;;;;;5036139;28;20017;-66
2022/01/01 08:14:09;;;;;;;18.67;10.60;;;9.00;99.90;;;;;;5036240;28;20107;-66
2022/01/01 08:16:56;;;;;;;18.60;10.13;;;9.10;99.90;;;;;;5036374;28;20561;-66
2022/01/01 08:19:22;;;;;;;19.08;10.30;;;9.10;99.90;;;;;;5036496;28;20116;-66
2022/01/01 08:21:50;;;;;;;16.05;10.20;;;9.10;99.90;;;;;;5019020;28;20057;-65
2022/01/01 08:24:16;;;;;;;14.38;9.75;;;9.30;99.90;;;;;;5037164;28;20099;-66
2022/01/01 08:26:41;;;;;;;19.33;10.45;;;9.40;99.90;;;;;;5037295;28;20432;-66
2022/01/01 08:29:07;;;;;;;17.77;10.23;;;9.50;99.90;;;;;;5018099;28;20133;-65
2022/01/01 08:31:33;;;;;;;20.48;10.35;;;9.40;99.90;;;;;;5035929;28;20256;-65
2022/01/01 08:33:58;;;;;;;16.63;9.60;;;9.30;99.90;;;;;;5036430;28;20032;-65
2022/01/01 08:36:24;;;;;;;16.30;9.93;;;9.40;99.90;;;;;;5037279;28;20018;-65
2022/01/01 08:38:49;;;;;;;17.07;10.03;;;9.60;99.90;;;;;;5036766;28;20382;-65
2022/01/01 08:41:16;;;;;;;19.70;10.27;;;9.60;99.90;;;;;;5019117;28;20034;-65
2022/01/01 08:43:41;;;;;;;16.90;9.70;;;9.70;99.90;;;;;;5036624;28;20101;-66
2022/01/01 08:46:07;;;;;;;15.90;9.43;;;9.70;99.90;;;;;;5036109;28;20509;-66
2022/01/01 08:48:33;;;;;;;17.60;10.15;;;10.00;99.90;;;;;;5017534;28;20172;-65
2022/01/01 08:50:59;;;;;;;16.23;9.07;;;10.00;99.90;;;;;;5035342;28;20021;-65
2022/01/01 08:53:25;;;;;;;17.10;10.02;;;10.00;99.90;;;;;;5035435;28;20026;-66
2022/01/01 08:55:52;;;;;;;17.23;10.60;;;9.90;99.90;;;;;;5034790;28;20033;-66
2022/01/01 08:58:17;;;;;;;16.05;10.23;;;9.80;99.90;;;;;;5035442;28;20021;-65
2022/01/01 09:00:44;;;;;;;14.60;9.10;;;9.70;99.90;;;;;;5017931;28;20022;-65
2022/01/01 09:03:09;;;;;;;;;;;9.70;99.90;;;;;;5035995;28;20490;-65
2022/01/01 09:05:35;;;;;;;16.55;9.55;;;9.70;99.90;;;;;;5034726;28;19905;-65
2022/01/01 09:08:01;;;;;;;19.17;10.20;;;9.70;99.90;;;;;;5034838;28;20101;-65
2022/01/01 09:10:26;;;;;;;16.97;10.77;;;9.60;99.90;;;;;;5035027;28;20026;-65
2022/01/01 09:12:52;;;;;;;16.23;9.57;;;9.70;99.90;;;;;;5035790;28;20022;-65
2022/01/01 09:15:17;;;;;;;20.13;11.43;;;9.70;99.90;;;;;;5036731;28;20028;-68
2022/01/01 09:17:43;;;;;;;15.17;9.73;;;9.70;99.90;;;;;;5037045;28;20029;-66
2022/01/01 09:20:09;;;;;;;15.80;10.27;;;10.00;99.90;;;;;;5035007;28;20429;-66
2022/01/01 09:22:35;;;;;;;14.32;9.38;;;10.20;99.90;;;;;;5034350;28;20471;-64
2022/01/01 09:25:01;;;;;;;16.33;9.50;;;10.30;99.90;;;;;;5034364;28;20151;-66
2022/01/01 09:27:26;;;;;;;14.13;8.67;;;10.20;99.90;;;;;;5034348;28;20337;-65
2022/01/01 09:29:52;;;;;;;16.90;9.53;;;10.20;99.90;;;;;;5035027;28;20097;-65
2022/01/01 09:32:18;;;;;;;17.70;9.67;;;10.20;99.90;;;;;;5034511;28;20021;-64
2022/01/01 09:34:44;;;;;;;13.65;9.45;;;10.30;99.90;;;;;;5034149;28;20018;-65
2022/01/01 09:37:09;;;;;;;14.68;8.90;;;10.30;99.90;;;;;;5034182;28;20532;-65
2022/01/01 09:39:35;;;;;;;16.30;9.40;;;10.40;99.90;;;;;;5034044;28;20033;-66
2022/01/01 09:42:02;;;;;;;14.20;8.73;;;10.50;99.90;;;;;;5033997;28;20033;-66
2022/01/01 09:44:31;;;;;;;17.08;9.85;;;10.80;99.90;;;;;;5034370;28;20264;-68
2022/01/01 09:46:56;;;;;;;13.48;8.75;;;10.70;99.90;;;;;;5033854;28;20030;-65
2022/01/01 09:49:22;;;;;;;16.00;9.40;;;10.70;99.90;;;;;;5033846;28;20096;-64
2022/01/01 09:51:48;;;;;;;12.03;8.20;;;10.90;99.90;;;;;;5034049;28;20025;-65
2022/01/01 09:54:14;;;;;;;14.40;9.20;;;11.00;99.90;;;;;;5015882;28;20017;-66
2022/01/01 09:56:39;;;;;;;15.32;8.68;;;10.90;99.90;;;;;;5015968;28;20819;-65
2022/01/01 09:59:05;;;;;;;14.03;7.93;;;10.90;99.90;;;;;;5015940;28;20490;-65
2022/01/01 10:01:32;;;;;;;13.75;8.23;;;10.90;99.90;;;;;;5033633;28;20040;-65
2022/01/01 10:03:59;;;;;;;13.90;8.50;;;10.70;99.90;;;;;;5033809;28;20489;-65
2022/01/01 10:06:28;;;;;;;12.80;7.97;;;10.90;99.90;;;;;;5033445;28;20108;-64
2022/01/01 10:08:59;;;;;;;15.18;7.85;;;11.00;99.90;;;;;;5032864;28;20036;-64
2022/01/01 10:11:27;;;;;;;14.05;8.52;;;11.00;99.90;;;;;;5034128;28;20034;-66
2022/01/01 10:13:53;;;;;;;13.10;8.15;;;11.00;99.90;;;;;;5033684;28;20375;-63
2022/01/01 10:16:19;;;;;;;13.85;7.60;;;11.20;99.90;;;;;;5033505;28;20028;-63
2022/01/01 10:18:50;;;;;;;12.30;7.80;;;11.40;99.90;;;;;;5033381;28;20548;-63
2022/01/01 10:21:21;;;;;;;8.70;5.88;;;11.60;99.90;;;;;;5033685;28;20482;-64
2022/01/01 10:23:52;;;;;;;9.48;6.55;;;11.70;99.90;;;;;;5033934;28;20082;-64
2022/01/01 10:29:23;;;;;;;9.48;6.90;;;11.70;99.90;;;;;;5033408;28;20216;-62
2022/01/01 10:31:56;;;;;;;12.05;6.30;;;11.90;99.90;;;;;;5015630;28;20030;-62
2022/01/01 10:34:24;;;;;;;10.75;6.55;;;12.10;99.90;;;;;;5033972;28;20018;-62
2022/01/01 10:36:52;;;;;;;10.80;5.72;;;12.40;99.90;;;;;;5033423;28;20037;-64
2022/01/01 10:39:18;;;;;;;8.63;5.07;;;12.50;99.90;;;;;;5035615;28;20026;-62
2022/01/01 10:41:52;;;;;;;9.20;5.15;;;12.40;99.90;;;;;;5036517;28;20558;-63
2022/01/01 10:44:26;;;;;;;11.30;4.90;;;12.30;99.90;;;;;;5018236;28;20092;-62
2022/01/01 10:46:51;;;;;;;7.60;4.82;;;12.40;99.90;;;;;;5034368;28;20037;-61
2022/01/01 10:50:17;;;;;;;8.68;4.85;;;12.30;99.90;;;;;;5015762;28;20030;-63
2022/01/01 10:52:28;;;;;;;7.28;4.40;;;12.30;99.90;;;;;;5022746;28;20117;-62
2022/01/01 10:55:05;;;;;;;10.70;5.00;;;12.10;99.90;;;;;;5033823;28;20071;-63
2022/01/01 10:57:36;;;;;;;9.70;5.38;;;12.20;99.90;;;;;;5033964;28;20026;-65
2022/01/01 11:00:20;;;;;;;9.13;5.93;;;12.40;99.90;;;;;;5034630;28;20025;-66
2022/01/01 11:02:51;;;;;;;10.02;5.60;;;12.40;99.90;;;;;;5037719;28;20022;-66
2022/01/01 11:05:28;;;;;;;10.43;5.80;;;12.50;99.90;;;;;;5036963;28;20053;-67
2022/01/01 11:07:54;;;;;;;8.98;5.63;;;12.80;99.90;;;;;;5038765;28;20033;-68
2022/01/01 11:10:21;;;;;;;10.30;5.10;;;12.80;99.90;;;;;;5039067;28;20025;-67
2022/01/01 11:12:48;;;;;;;8.32;5.13;;;12.80;99.90;;;;;;5035335;28;20044;-68
2022/01/01 11:15:14;;;;;;;;;;;12.60;99.90;;;;;;5034698;28;20105;-67
2022/01/01 11:17:41;;;;;;;9.70;4.78;;;12.40;99.90;;;;;;5034153;28;19952;-66
2022/01/01 11:20:08;;;;;;;7.30;4.60;;;12.40;99.90;;;;;;5019139;28;20113;-68
2022/01/01 11:22:34;;;;;;;7.43;5.07;;;12.40;99.90;;;;;;5043222;28;20029;-66
2022/01/01 11:25:00;;;;;;;8.60;5.32;;;12.50;99.90;;;;;;5027930;28;20552;-66
2022/01/01 11:27:27;;;;;;;7.78;4.90;;;12.50;99.90;;;;;;5028566;28;20029;-69
2022/01/01 11:29:54;;;;;;;7.28;4.55;;;12.60;99.90;;;;;;5044734;28;20041;-65
2022/01/01 11:32:39;;;;;;;6.80;4.35;;;12.60;99.90;;;;;;5045672;28;20022;-65
2022/01/01 11:35:17;;;;;;;6.45;4.68;;;12.50;99.90;;;;;;5042657;28;20017;-65
2022/01/01 11:38:04;;;;;;;7.28;4.45;;;12.50;99.90;;;;;;5018670;28;20094;-65
2022/01/01 11:40:43;;;;;;;6.35;4.78;;;12.40;99.90;;;;;;5023984;28;20107;-64
2022/01/01 11:43:30;;;;;;;5.93;4.15;;;12.40;99.90;;;;;;5018695;28;20030;-65
2022/01/01 11:46:03;;;;;;;7.63;4.03;;;12.50;99.90;;;;;;5036987;28;20448;-63
2022/01/01 11:48:43;;;;;;;6.78;4.28;;;12.50;99.90;;;;;;5036210;28;20405;-64
2022/01/01 11:51:38;;;;;;;7.63;4.32;;;12.60;99.90;;;;;;5035983;28;20474;-65
2022/01/01 11:54:16;;;;;;;8.48;4.72;;;12.70;99.90;;;;;;5036176;28;20470;-64
2022/01/01 11:56:51;;;;;;;7.97;4.70;;;12.80;99.90;;;;;;5036279;28;20041;-64
2022/01/01 11:59:25;;;;;;;7.13;4.97;;;12.80;99.90;;;;;;5036313;28;20095;-65
2022/01/01 12:01:56;;;;;;;7.03;4.60;;;12.90;99.90;;;;;;5037499;28;20041;-65
2022/01/01 12:04:40;;;;;;;8.90;5.50;;;12.90;99.90;;;;;;5036665;28;20029;-65
2022/01/01 12:07:11;;;;;;;8.85;5.13;;;12.90;99.90;;;;;;5019156;28;20119;-66
2022/01/01 12:10:06;;;;;;;8.18;4.90;;;12.90;99.90;;;;;;5019133;28;20025;-66
2022/01/01 12:12:48;;;;;;;7.65;5.07;;;12.90;99.90;;;;;;5038428;28;20406;-66
2022/01/01 12:15:39;;;;;;;6.85;4.28;;;13.10;99.90;;;;;;5019420;28;20026;-66
2022/01/01 12:18:12;;;;;;;9.90;5.13;;;13.10;99.90;;;;;;5018648;28;20095;-65
2022/01/01 12:20:50;;;;;;;8.07;4.60;;;13.20;99.90;;;;;;5036088;28;20029;-66
2022/01/01 12:23:24;;;;;;;8.20;4.63;;;13.30;99.90;;;;;;5035970;28;20394;-66
2022/01/01 12:25:51;;;;;;;7.07;5.05;;;13.30;99.90;;;;;;5016277;28;20025;-66
2022/01/01 12:28:21;;;;;;;9.57;4.65;;;13.30;99.90;;;;;;5035763;28;20037;-67
2022/01/01 12:31:03;;;;;;;7.95;4.53;;;13.20;99.90;;;;;;5035372;28;20032;-66
2022/01/01 12:33:38;;;;;;;6.88;3.70;;;13.20;99.90;;;;;;5036294;28;20014;-66
2022/01/01 12:36:06;;;;;;;6.22;4.03;;;13.20;99.90;;;;;;5017452;28;20084;-66
2022/01/01 12:38:33;;;;;;;8.65;4.05;;;13.20;99.90;;;;;;5017339;28;20026;-66
2022/01/01 12:41:17;;;;;;;5.65;3.80;;;13.20;99.90;;;;;;5034996;28;20017;-65
2022/01/01 12:43:45;;;;;;;7.47;4.30;;;13.20;99.90;;;;;;5017293;28;20405;-66
2022/01/01 12:46:13;;;;;;;5.82;4.00;;;13.20;99.90;;;;;;5035260;28;20030;-65